createdAt,value
2022-09-20T00:00:27.000Z,7.7
2022-09-20T00:01:44.000Z,7.7
2022-09-20T00:03:00.000Z,7.6
2022-09-20T00:04:16.000Z,7.6
2022-09-20T00:05:32.000Z,7.6
2022-09-20T00:06:48.000Z,7.5
2022-09-20T00:08:04.000Z,7.5
2022-09-20T00:09:19.000Z,7.4
2022-09-20T00:10:36.271Z,7.4
2022-09-20T00:11:52.000Z,7.3
2022-09-20T00:13:08.000Z,7.3
2022-09-20T00:14:24.000Z,7.3
2022-09-20T00:15:40.859Z,7.2
2022-09-20T00:16:56.000Z,7.2
2022-09-20T00:18:12.000Z,7.1
2022-09-20T00:19:29.000Z,7.1
2022-09-20T00:20:45.000Z,7.1
2022-09-20T00:22:01.582Z,7
2022-09-20T00:23:17.727Z,7
2022-09-20T00:24:33.000Z,6.9
2022-09-20T00:25:49.035Z,6.9
2022-09-20T00:27:04.000Z,6.9
2022-09-20T00:28:21.000Z,6.9
2022-09-20T00:29:37.475Z,6.8
2022-09-20T00:30:53.620Z,6.8
2022-09-20T00:32:09.000Z,6.8
2022-09-20T00:33:25.000Z,6.8
2022-09-20T00:34:41.000Z,6.8
2022-09-20T00:35:57.000Z,6.8
2022-09-20T00:37:14.000Z,6.8
2022-09-20T00:38:30.000Z,6.7
2022-09-20T00:39:46.000Z,6.7
2022-09-20T00:41:02.789Z,6.7
2022-09-20T00:42:17.000Z,6.7
2022-09-20T00:43:33.000Z,6.7
2022-09-20T00:44:50.240Z,6.7
2022-09-20T00:46:06.000Z,6.7
2022-09-20T00:47:22.000Z,6.7
2022-09-20T00:48:38.000Z,6.7
2022-09-20T00:49:54.823Z,6.7
2022-09-20T00:51:10.968Z,6.7
2022-09-20T00:52:26.000Z,6.6
2022-09-20T00:53:43.000Z,6.6
2022-09-20T00:54:59.000Z,6.6
2022-09-20T00:56:15.000Z,6.6
2022-09-20T00:57:31.696Z,6.6
2022-09-20T00:58:46.000Z,6.6
2022-09-20T01:00:02.000Z,6.6
2022-09-20T01:01:18.000Z,6.6
2022-09-20T01:02:35.000Z,6.5
2022-09-20T01:03:51.000Z,6.5
2022-09-20T01:05:07.000Z,6.5
2022-09-20T01:06:23.000Z,6.5
2022-09-20T01:07:39.000Z,6.5
2022-09-20T01:08:55.000Z,6.5
2022-09-20T01:10:11.000Z,6.4
2022-09-20T01:11:28.315Z,6.4
2022-09-20T01:12:44.000Z,6.4
2022-09-20T01:14:00.611Z,6.4
2022-09-20T01:15:15.000Z,6.4
2022-09-20T01:16:31.906Z,6.3
2022-09-20T01:17:47.000Z,6.3
2022-09-20T01:19:03.000Z,6.3
2022-09-20T01:20:20.000Z,6.3
2022-09-20T01:21:36.000Z,6.4
2022-09-20T01:22:52.000Z,6.4
2022-09-20T01:24:08.000Z,6.3
2022-09-20T01:25:24.000Z,6.3
2022-09-20T01:26:40.000Z,6.3
2022-09-20T01:27:56.000Z,6.3
2022-09-20T01:29:13.000Z,6.3
2022-09-20T01:30:29.510Z,6.3
2022-09-20T01:31:44.000Z,6.3
2022-09-20T01:33:00.814Z,6.3
2022-09-20T01:34:16.000Z,6.3
2022-09-20T01:35:32.000Z,6.3
2022-09-20T01:36:49.000Z,6.3
2022-09-20T01:38:05.000Z,6.3
2022-09-20T01:39:21.546Z,6.3
2022-09-20T01:40:37.000Z,6.3
2022-09-20T01:41:53.000Z,6.3
2022-09-20T01:43:09.000Z,6.3
2022-09-20T01:44:25.000Z,6.3
2022-09-20T01:45:42.000Z,6.3
2022-09-20T01:46:58.000Z,6.3
2022-09-20T01:48:13.000Z,6.2
2022-09-20T01:49:29.000Z,6.2
2022-09-20T01:50:45.000Z,6.2
2022-09-20T01:52:01.000Z,6.2
2022-09-20T01:53:17.000Z,6.2
2022-09-20T01:54:34.000Z,6.2
2022-09-20T01:55:50.450Z,6.2
2022-09-20T01:57:06.000Z,6.2
2022-09-20T01:58:22.000Z,6.2
2022-09-20T01:59:38.000Z,6.3
2022-09-20T02:00:54.000Z,6.3
2022-09-20T02:02:10.000Z,6.3
2022-09-20T02:03:27.000Z,6.4
2022-09-20T02:04:42.000Z,6.4
2022-09-20T02:05:58.000Z,6.5
2022-09-20T02:07:14.000Z,6.5
2022-09-20T02:08:30.000Z,6.6
2022-09-20T02:09:46.000Z,6.6
2022-09-20T02:11:02.000Z,6.7
2022-09-20T02:12:19.000Z,6.8
2022-09-20T02:13:35.000Z,6.8
2022-09-20T02:14:51.000Z,6.9
2022-09-20T02:16:07.000Z,7
2022-09-20T02:17:23.000Z,7.1
2022-09-20T02:18:39.000Z,7.1
2022-09-20T02:19:56.000Z,7.2
2022-09-20T02:21:11.000Z,7.2
2022-09-20T02:22:27.000Z,7.3
2022-09-20T02:23:43.000Z,7.3
2022-09-20T02:24:59.000Z,7.3
2022-09-20T02:26:15.000Z,7.4
2022-09-20T02:27:31.000Z,7.4
2022-09-20T02:28:48.000Z,7.4
2022-09-20T02:30:04.000Z,7.4
2022-09-20T02:31:20.000Z,7.4
2022-09-20T02:32:36.000Z,7.4
2022-09-20T02:33:52.844Z,7.4
2022-09-20T02:35:09.021Z,7.4
2022-09-20T02:36:25.133Z,7.4
2022-09-20T02:37:40.295Z,7.4
2022-09-20T02:38:56.000Z,7.4
2022-09-20T02:40:12.000Z,7.4
2022-09-20T02:41:28.000Z,7.4
2022-09-20T02:42:44.000Z,7.4
2022-09-20T02:44:00.000Z,7.4
2022-09-20T02:45:15.000Z,7.4
2022-09-20T02:46:32.000Z,7.4
2022-09-20T02:47:48.000Z,7.3
2022-09-20T02:49:04.623Z,7.3
2022-09-20T02:50:20.000Z,7.3
2022-09-20T02:51:36.000Z,7.3
2022-09-20T02:52:53.077Z,7.3
2022-09-20T02:54:09.224Z,7.3
2022-09-20T02:55:25.000Z,7.3
2022-09-20T02:56:41.000Z,7.3
2022-09-20T02:57:57.000Z,7.3
2022-09-20T02:59:13.000Z,7.3
2022-09-20T03:00:29.000Z,7.3
2022-09-20T03:01:44.000Z,7.3
2022-09-20T03:03:01.000Z,7.3
2022-09-20T03:04:17.000Z,7.3
2022-09-20T03:05:33.000Z,7.3
2022-09-20T03:06:49.000Z,7.3
2022-09-20T03:08:05.000Z,7.3
2022-09-20T03:09:21.000Z,7.2
2022-09-20T03:10:37.000Z,7.2
2022-09-20T03:11:54.000Z,7.2
2022-09-20T03:13:10.000Z,7.2
2022-09-20T03:14:26.000Z,7.1
2022-09-20T03:15:42.000Z,7.1
2022-09-20T03:16:58.000Z,7.1
2022-09-20T03:18:13.000Z,7.1
2022-09-20T03:19:29.000Z,7
2022-09-20T03:20:46.000Z,7
2022-09-20T03:22:02.000Z,7
2022-09-20T03:23:18.000Z,7
2022-09-20T03:24:34.000Z,7
2022-09-20T03:25:50.000Z,7
2022-09-20T03:27:07.025Z,7
2022-09-20T03:28:23.181Z,7
2022-09-20T03:29:39.000Z,7
2022-09-20T03:30:55.000Z,7
2022-09-20T03:32:11.000Z,7
2022-09-20T03:33:27.000Z,7
2022-09-20T03:34:42.917Z,7
2022-09-20T03:35:58.000Z,6.9
2022-09-20T03:37:14.000Z,6.9
2022-09-20T03:38:31.000Z,6.8
2022-09-20T03:39:47.000Z,6.8
2022-09-20T03:41:03.000Z,6.8
2022-09-20T03:42:19.000Z,6.7
2022-09-20T03:43:35.000Z,6.7
2022-09-20T03:44:51.000Z,6.6
2022-09-20T03:46:08.228Z,6.5
2022-09-20T03:47:24.000Z,6.5
2022-09-20T03:48:40.000Z,6.4
2022-09-20T03:49:56.000Z,6.4
2022-09-20T03:51:11.000Z,6.4
2022-09-20T03:52:27.000Z,6.3
2022-09-20T03:53:43.000Z,6.3
2022-09-20T03:55:00.000Z,6.3
2022-09-20T03:56:16.000Z,6.3
2022-09-20T03:57:32.549Z,6.3
2022-09-20T03:58:48.000Z,6.3
2022-09-20T04:00:04.000Z,6.3
2022-09-20T04:01:20.000Z,6.3
2022-09-20T04:02:37.132Z,6.2
2022-09-20T04:03:53.000Z,6.2
2022-09-20T04:05:09.440Z,6.2
2022-09-20T04:06:25.000Z,6.2
2022-09-20T04:07:40.728Z,6.2
2022-09-20T04:08:56.000Z,6.1
2022-09-20T04:10:12.000Z,6.1
2022-09-20T04:11:28.000Z,6.1
2022-09-20T04:12:45.313Z,6.1
2022-09-20T04:14:01.458Z,6.1
2022-09-20T04:15:17.000Z,6
2022-09-20T04:16:33.000Z,6
2022-09-20T04:17:49.000Z,6
2022-09-20T04:19:06.038Z,6
2022-09-20T04:20:21.000Z,6
2022-09-20T04:21:38.000Z,6
2022-09-20T04:22:54.000Z,5.9
2022-09-20T04:24:09.000Z,5.9
2022-09-20T04:25:25.000Z,5.9
2022-09-20T04:26:41.000Z,5.9
2022-09-20T04:27:57.000Z,5.9
2022-09-20T04:29:13.000Z,5.9
2022-09-20T04:30:30.000Z,5.9
2022-09-20T04:31:46.525Z,5.8
2022-09-20T04:33:02.000Z,5.8
2022-09-20T04:34:18.000Z,5.8
2022-09-20T04:35:34.000Z,5.8
2022-09-20T04:36:51.090Z,5.8
2022-09-20T04:38:07.000Z,5.8
2022-09-20T04:39:23.399Z,5.7
2022-09-20T04:40:38.000Z,5.7
2022-09-20T04:41:54.000Z,5.7
2022-09-20T04:43:10.836Z,5.7
2022-09-20T04:44:26.000Z,5.7
2022-09-20T04:45:42.000Z,5.7
2022-09-20T04:46:59.000Z,5.7
2022-09-20T04:48:15.000Z,5.7
2022-09-20T04:49:31.000Z,5.7
2022-09-20T04:50:47.000Z,5.6
2022-09-20T04:52:03.000Z,5.6
2022-09-20T04:53:19.000Z,5.6
2022-09-20T04:54:35.000Z,5.6
2022-09-20T04:55:52.000Z,5.6
2022-09-20T04:57:07.000Z,5.6
2022-09-20T04:58:23.000Z,5.6
2022-09-20T04:59:39.000Z,5.6
2022-09-20T05:00:55.887Z,5.6
2022-09-20T05:02:12.041Z,5.6
2022-09-20T05:03:27.000Z,5.6
2022-09-20T05:04:44.000Z,5.6
2022-09-20T05:06:00.000Z,5.6
2022-09-20T05:07:16.000Z,5.6
2022-09-20T05:08:32.000Z,5.6
2022-09-20T05:09:48.000Z,5.6
2022-09-20T05:11:04.000Z,5.5
2022-09-20T05:12:21.203Z,5.5
2022-09-20T05:13:36.000Z,5.5
2022-09-20T05:14:52.000Z,5.5
2022-09-20T05:16:08.000Z,5.4
2022-09-20T05:17:24.000Z,5.4
2022-09-20T05:18:40.946Z,5.4
2022-09-20T05:19:56.000Z,5.4
2022-09-20T05:21:13.235Z,5.4
2022-09-20T05:22:29.000Z,5.4
2022-09-20T05:23:45.000Z,5.4
2022-09-20T05:25:01.000Z,5.4
2022-09-20T05:26:17.000Z,5.4
2022-09-20T05:27:33.963Z,5.4
2022-09-20T05:28:49.000Z,5.4
2022-09-20T05:30:05.279Z,5.4
2022-09-20T05:31:21.000Z,5.4
2022-09-20T05:32:37.000Z,5.3
2022-09-20T05:33:53.711Z,5.3
2022-09-20T05:35:09.857Z,5.3
2022-09-20T05:36:25.000Z,5.3
2022-09-20T05:37:41.000Z,5.3
2022-09-20T05:38:58.000Z,5.3
2022-09-20T05:40:14.000Z,5.3
2022-09-20T05:41:30.000Z,5.3
2022-09-20T05:42:46.000Z,5.3
2022-09-20T05:44:02.000Z,5.3
2022-09-20T05:45:18.000Z,5.2
2022-09-20T05:46:34.184Z,5.2
2022-09-20T05:47:50.000Z,5.2
2022-09-20T05:49:06.000Z,5.2
2022-09-20T05:50:22.000Z,5.3
2022-09-20T05:51:38.000Z,5.3
2022-09-20T05:52:54.000Z,5.3
2022-09-20T05:54:11.057Z,5.3
2022-09-20T05:55:26.000Z,5.3
2022-09-20T05:56:43.345Z,5.3
2022-09-20T05:57:59.000Z,5.3
2022-09-20T05:59:15.643Z,5.3
2022-09-20T06:00:31.000Z,5.3
2022-09-20T06:01:47.000Z,5.3
2022-09-20T06:03:02.000Z,5.3
2022-09-20T06:04:19.000Z,5.4
2022-09-20T06:05:35.000Z,5.4
2022-09-20T06:06:51.000Z,5.4
2022-09-20T06:08:07.000Z,5.4
2022-09-20T06:09:23.000Z,5.4
2022-09-20T06:10:39.965Z,5.5
2022-09-20T06:11:55.000Z,5.5
2022-09-20T06:13:12.000Z,5.5
2022-09-20T06:14:28.000Z,5.5
2022-09-20T06:15:44.550Z,5.5
2022-09-20T06:17:00.000Z,5.6
2022-09-20T06:18:16.000Z,5.6
2022-09-20T06:19:32.004Z,5.6
2022-09-20T06:20:47.000Z,5.7
2022-09-20T06:22:04.000Z,5.7
2022-09-20T06:23:20.000Z,5.7
2022-09-20T06:24:36.000Z,5.8
2022-09-20T06:25:52.000Z,5.9
2022-09-20T06:27:08.000Z,5.9
2022-09-20T06:28:25.014Z,6
2022-09-20T06:29:40.000Z,6
2022-09-20T06:30:57.000Z,6.1
2022-09-20T06:32:13.000Z,6.2
2022-09-20T06:33:29.000Z,6.2
2022-09-20T06:34:45.745Z,6.3
2022-09-20T06:36:00.000Z,6.3
2022-09-20T06:37:17.056Z,6.3
2022-09-20T06:38:32.000Z,6.4
2022-09-20T06:39:49.000Z,6.4
2022-09-20T06:41:05.000Z,6.5
2022-09-20T06:42:21.635Z,6.5
2022-09-20T06:43:37.000Z,6.6
2022-09-20T06:44:53.000Z,6.7
2022-09-20T06:46:10.078Z,6.7
2022-09-20T06:47:25.000Z,6.7
2022-09-20T06:48:42.000Z,6.7
2022-09-20T06:49:58.000Z,6.8
2022-09-20T06:51:14.000Z,6.8
2022-09-20T06:52:29.000Z,6.8
2022-09-20T06:53:45.000Z,6.9
2022-09-20T06:55:01.000Z,6.9
2022-09-20T06:56:18.000Z,7
2022-09-20T06:57:34.000Z,7.1
2022-09-20T06:58:50.000Z,7.1
2022-09-20T07:00:05.000Z,7.2
2022-09-20T07:01:21.000Z,7.3
2022-09-20T07:02:37.000Z,7.4
2022-09-20T07:03:54.146Z,7.5
2022-09-20T07:05:10.000Z,7.6
2022-09-20T07:06:26.000Z,7.7
2022-09-20T07:07:42.000Z,7.9
2022-09-20T07:08:58.000Z,8
2022-09-20T07:10:14.000Z,8.2
2022-09-20T07:11:30.000Z,8.3
2022-09-20T07:12:46.000Z,8.5
2022-09-20T07:14:03.000Z,8.6
2022-09-20T07:15:19.000Z,8.7
2022-09-20T07:16:34.000Z,8.9
2022-09-20T07:17:50.000Z,9
2022-09-20T07:19:06.000Z,9.1
2022-09-20T07:20:22.000Z,9.2
2022-09-20T07:21:38.000Z,9.4
2022-09-20T07:22:55.000Z,9.5
2022-09-20T07:24:11.000Z,9.7
2022-09-20T07:25:27.000Z,9.8
2022-09-20T07:26:43.000Z,9.9
2022-09-20T07:27:59.924Z,10.1
2022-09-20T07:29:15.000Z,10.2
2022-09-20T07:30:31.000Z,10.3
2022-09-20T07:31:48.376Z,10.5
2022-09-20T07:33:03.528Z,10.6
2022-09-20T07:34:19.000Z,10.7
2022-09-20T07:35:35.000Z,10.8
2022-09-20T07:36:51.985Z,10.9
2022-09-20T07:38:07.000Z,11
2022-09-20T07:39:24.000Z,11.1
2022-09-20T07:40:40.000Z,11.2
2022-09-20T07:41:56.544Z,11.3
2022-09-20T07:43:12.000Z,11.4
2022-09-20T07:44:28.000Z,11.5
2022-09-20T07:45:44.000Z,11.6
2022-09-20T07:47:00.000Z,11.7
2022-09-20T07:48:17.000Z,11.8
2022-09-20T07:49:32.000Z,11.9
2022-09-20T07:50:48.000Z,12
2022-09-20T07:52:04.000Z,12
2022-09-20T07:53:20.000Z,12.1
2022-09-20T07:54:37.028Z,12.2
2022-09-20T07:55:52.000Z,12.3
2022-09-20T07:57:09.000Z,12.3
2022-09-20T07:58:25.000Z,12.4
2022-09-20T07:59:41.000Z,12.5
2022-09-20T08:00:57.000Z,12.6
2022-09-20T08:02:13.000Z,12.7
2022-09-20T08:03:30.045Z,12.8
2022-09-20T08:04:45.000Z,13
2022-09-20T08:06:01.342Z,13.2
2022-09-20T08:07:17.000Z,13.5
2022-09-20T08:08:33.000Z,13.7
2022-09-20T08:09:49.000Z,13.9
2022-09-20T08:11:05.000Z,14.1
2022-09-20T08:12:21.000Z,14.2
2022-09-20T08:13:37.000Z,14.4
2022-09-20T08:14:54.000Z,14.5
2022-09-20T08:16:10.000Z,14.6
2022-09-20T08:17:26.662Z,14.6
2022-09-20T08:18:42.000Z,14.7
2022-09-20T08:19:58.000Z,14.8
2022-09-20T08:21:14.000Z,14.8
2022-09-20T08:22:30.000Z,14.9
2022-09-20T08:23:46.389Z,14.9
2022-09-20T08:25:02.000Z,15
2022-09-20T08:26:18.000Z,15
2022-09-20T08:27:34.000Z,15.1
2022-09-20T08:28:50.974Z,15.2
2022-09-20T08:30:06.000Z,15.3
2022-09-20T08:31:23.000Z,15.5
2022-09-20T08:32:39.000Z,15.6
2022-09-20T08:33:55.000Z,15.8
2022-09-20T08:35:11.000Z,15.9
2022-09-20T08:36:27.000Z,16.1
2022-09-20T08:37:43.000Z,16.2
2022-09-20T08:38:58.000Z,16.3
2022-09-20T08:40:15.000Z,16.5
2022-09-20T08:41:31.000Z,16.6
2022-09-20T08:42:47.000Z,16.7
2022-09-20T08:44:03.000Z,16.8
2022-09-20T08:45:19.000Z,16.9
2022-09-20T08:46:35.000Z,17.1
2022-09-20T08:47:51.000Z,17.2
2022-09-20T08:49:08.000Z,17.4
2022-09-20T08:50:24.479Z,17.5
2022-09-20T08:51:40.000Z,17.7
2022-09-20T08:52:56.000Z,17.8
2022-09-20T08:54:12.000Z,18
2022-09-20T08:55:27.000Z,18.2
2022-09-20T08:56:43.000Z,18.3
2022-09-20T08:58:00.000Z,18.5
2022-09-20T08:59:16.000Z,18.6
2022-09-20T09:00:32.000Z,18.8
2022-09-20T09:01:48.000Z,18.9
2022-09-20T09:03:04.000Z,19
2022-09-20T09:04:20.000Z,19.2
2022-09-20T09:05:37.000Z,19.3
2022-09-20T09:06:53.000Z,19.4
2022-09-20T09:08:09.000Z,19.5
2022-09-20T09:09:25.000Z,19.6
2022-09-20T09:10:41.000Z,19.7
2022-09-20T09:11:56.000Z,19.7
2022-09-20T09:13:12.000Z,19.8
2022-09-20T09:14:29.000Z,19.9
2022-09-20T09:15:45.000Z,20.1
2022-09-20T09:17:01.000Z,20.2
2022-09-20T09:18:17.000Z,20.4
2022-09-20T09:19:33.000Z,20.5
2022-09-20T09:20:49.000Z,20.7
2022-09-20T09:22:05.000Z,20.8
2022-09-20T09:23:22.000Z,21
2022-09-20T09:24:38.000Z,21.2
2022-09-20T09:25:54.000Z,21.3
2022-09-20T09:27:10.761Z,21.5
2022-09-20T09:28:25.000Z,21.6
2022-09-20T09:29:41.000Z,21.7
2022-09-20T09:30:57.000Z,21.8
2022-09-20T09:32:14.361Z,21.9
2022-09-20T09:33:30.000Z,22
2022-09-20T09:34:46.000Z,22.2
2022-09-20T09:36:02.000Z,22.3
2022-09-20T09:37:18.946Z,22.5
2022-09-20T09:38:35.100Z,22.6
2022-09-20T09:39:51.000Z,22.7
2022-09-20T09:41:07.000Z,22.8
2022-09-20T09:42:23.000Z,22.9
2022-09-20T09:43:39.000Z,23
2022-09-20T09:44:54.000Z,23.1
2022-09-20T09:46:10.000Z,23.2
2022-09-20T09:47:26.000Z,23.3
2022-09-20T09:48:43.000Z,23.3
2022-09-20T09:49:59.434Z,23.4
2022-09-20T09:51:15.000Z,23.4
2022-09-20T09:52:31.719Z,23.5
2022-09-20T09:53:47.000Z,23.6
2022-09-20T09:55:03.000Z,23.6
2022-09-20T09:56:19.000Z,23.7
2022-09-20T09:57:36.000Z,23.7
2022-09-20T09:58:52.000Z,23.7
2022-09-20T10:00:08.000Z,23.8
2022-09-20T10:01:23.763Z,23.9
2022-09-20T10:02:39.000Z,24
2022-09-20T10:03:55.000Z,24
2022-09-20T10:05:11.000Z,24
2022-09-20T10:06:28.000Z,24.1
2022-09-20T10:07:44.000Z,24.1
2022-09-20T10:09:00.000Z,24.2
2022-09-20T10:10:16.791Z,24.2
2022-09-20T10:11:32.000Z,24.3
2022-09-20T10:12:48.000Z,24.4
2022-09-20T10:14:05.000Z,24.5
2022-09-20T10:15:21.000Z,24.6
2022-09-20T10:16:37.000Z,24.7
2022-09-20T10:17:52.000Z,24.7
2022-09-20T10:19:08.832Z,24.7
2022-09-20T10:20:24.000Z,24.7
2022-09-20T10:21:40.000Z,24.7
2022-09-20T10:22:57.000Z,24.8
2022-09-20T10:24:13.000Z,24.8
2022-09-20T10:25:29.000Z,24.9
2022-09-20T10:26:45.000Z,25
2022-09-20T10:28:01.000Z,25.1
2022-09-20T10:29:17.000Z,25.2
2022-09-20T10:30:33.000Z,25.2
2022-09-20T10:31:50.000Z,25.2
2022-09-20T10:33:06.000Z,25.2
2022-09-20T10:34:21.606Z,25.2
2022-09-20T10:35:37.000Z,25.2
2022-09-20T10:36:53.000Z,25.3
2022-09-20T10:38:09.000Z,25.2
2022-09-20T10:39:25.000Z,25.2
2022-09-20T10:40:42.000Z,25.2
2022-09-20T10:41:58.499Z,25.3
2022-09-20T10:43:14.634Z,25.4
2022-09-20T10:44:30.000Z,25.5
2022-09-20T10:45:46.000Z,25.6
2022-09-20T10:47:02.000Z,25.7
2022-09-20T10:48:18.000Z,25.8
2022-09-20T10:49:35.000Z,25.8
2022-09-20T10:50:50.000Z,25.9
2022-09-20T10:52:06.677Z,25.9
2022-09-20T10:53:22.000Z,26
2022-09-20T10:54:38.000Z,26.1
2022-09-20T10:55:55.124Z,26.2
2022-09-20T10:57:11.000Z,26.2
2022-09-20T10:58:27.000Z,26.3
2022-09-20T10:59:43.000Z,26.2
2022-09-20T11:00:59.702Z,26.1
2022-09-20T11:02:15.000Z,26.1
2022-09-20T11:03:31.000Z,26.1
2022-09-20T11:04:47.000Z,26.2
2022-09-20T11:06:04.000Z,26.2
2022-09-20T11:07:19.000Z,26.4
2022-09-20T11:08:35.000Z,26.5
2022-09-20T11:09:51.000Z,26.6
2022-09-20T11:11:07.000Z,26.7
2022-09-20T11:12:23.000Z,26.8
2022-09-20T11:13:39.000Z,26.8
2022-09-20T11:14:55.000Z,26.8
2022-09-20T11:16:11.000Z,26.9
2022-09-20T11:17:27.649Z,26.9
2022-09-20T11:18:43.000Z,26.9
2022-09-20T11:19:59.000Z,26.9
2022-09-20T11:21:15.000Z,26.8
2022-09-20T11:22:32.000Z,26.7
2022-09-20T11:23:48.000Z,26.5
2022-09-20T11:25:04.000Z,26.4
2022-09-20T11:26:20.000Z,26.3
2022-09-20T11:27:36.000Z,26.2
2022-09-20T11:28:52.000Z,26.2
2022-09-20T11:30:08.000Z,26.2
2022-09-20T11:31:24.000Z,26.3
2022-09-20T11:32:40.000Z,26.4
2022-09-20T11:33:56.000Z,26.5
2022-09-20T11:35:12.000Z,26.6
2022-09-20T11:36:28.000Z,26.7
2022-09-20T11:37:44.000Z,26.8
2022-09-20T11:39:00.000Z,26.9
2022-09-20T11:40:17.000Z,27
2022-09-20T11:41:33.000Z,27
2022-09-20T11:42:49.000Z,27.1
2022-09-20T11:44:05.000Z,27.1
2022-09-20T11:45:21.891Z,27.1
2022-09-20T11:46:38.045Z,27.1
2022-09-20T11:47:52.000Z,27.2
2022-09-20T11:49:09.000Z,27.2
2022-09-20T11:50:25.000Z,27.2
2022-09-20T11:51:41.000Z,27.3
2022-09-20T11:52:57.792Z,27.3
2022-09-20T11:54:13.000Z,27.2
2022-09-20T11:55:29.000Z,27.2
2022-09-20T11:56:46.000Z,27.2
2022-09-20T11:58:02.000Z,27.1
2022-09-20T11:59:18.000Z,27.1
2022-09-20T12:00:34.000Z,27.1
2022-09-20T12:01:50.000Z,27.1
2022-09-20T12:03:06.963Z,27
2022-09-20T12:04:22.126Z,27
2022-09-20T12:05:38.000Z,26.9
2022-09-20T12:06:54.000Z,26.9
2022-09-20T12:08:10.000Z,26.9
2022-09-20T12:09:26.000Z,26.9
2022-09-20T12:10:42.000Z,26.8
2022-09-20T12:11:58.000Z,26.8
2022-09-20T12:13:14.000Z,26.9
2022-09-20T12:14:31.000Z,26.9
2022-09-20T12:15:47.446Z,26.9
2022-09-20T12:17:03.000Z,26.8
2022-09-20T12:18:19.000Z,26.7
2022-09-20T12:19:35.000Z,26.7
2022-09-20T12:20:50.000Z,26.7
2022-09-20T12:22:07.195Z,26.7
2022-09-20T12:23:23.000Z,26.7
2022-09-20T12:24:39.000Z,26.8
2022-09-20T12:25:55.000Z,26.8
2022-09-20T12:27:11.000Z,26.9
2022-09-20T12:28:27.000Z,26.9
2022-09-20T12:29:44.079Z,26.9
2022-09-20T12:31:00.223Z,27
2022-09-20T12:32:16.000Z,27
2022-09-20T12:33:32.000Z,27.1
2022-09-20T12:34:48.665Z,27.1
2022-09-20T12:36:04.000Z,27
2022-09-20T12:37:19.987Z,26.7
2022-09-20T12:38:35.000Z,26.2
2022-09-20T12:39:52.000Z,25.8
2022-09-20T12:41:08.000Z,25.4
2022-09-20T12:42:24.000Z,25.5
2022-09-20T12:43:40.000Z,25.6
2022-09-20T12:44:56.000Z,25.1
2022-09-20T12:46:12.000Z,24.8
2022-09-20T12:47:28.000Z,24.4
2022-09-20T12:48:45.000Z,24.2
2022-09-20T12:50:01.000Z,23.9
2022-09-20T12:51:17.000Z,23.6
2022-09-20T12:52:33.000Z,23.3
2022-09-20T12:53:48.000Z,23.1
2022-09-20T12:55:04.000Z,22.9
2022-09-20T12:56:21.187Z,22.7
2022-09-20T12:57:37.000Z,22.5
2022-09-20T12:58:53.000Z,22.6
2022-09-20T13:00:09.630Z,22.9
2022-09-20T13:01:25.000Z,23.1
2022-09-20T13:02:41.000Z,23.3
2022-09-20T13:03:58.070Z,23.5
2022-09-20T13:05:13.000Z,23.7
2022-09-20T13:06:30.000Z,23.9
2022-09-20T13:07:46.000Z,23.9
2022-09-20T13:09:02.657Z,23.7
2022-09-20T13:10:17.000Z,23.4
2022-09-20T13:11:33.000Z,23.2
2022-09-20T13:12:49.000Z,22.9
2022-09-20T13:14:06.000Z,22.6
2022-09-20T13:15:22.404Z,22.5
2022-09-20T13:16:38.000Z,22.6
2022-09-20T13:17:54.000Z,22.8
2022-09-20T13:19:10.847Z,22.9
2022-09-20T13:20:26.000Z,23
2022-09-20T13:21:42.000Z,23.2
2022-09-20T13:22:59.000Z,23.3
2022-09-20T13:24:15.000Z,23.5
2022-09-20T13:25:31.000Z,23.6
2022-09-20T13:26:46.000Z,23.7
2022-09-20T13:28:02.000Z,23.8
2022-09-20T13:29:18.000Z,23.9
2022-09-20T13:30:34.000Z,23.9
2022-09-20T13:31:51.000Z,24
2022-09-20T13:33:07.000Z,24
2022-09-20T13:34:23.000Z,24
2022-09-20T13:35:39.000Z,24
2022-09-20T13:36:55.921Z,24
2022-09-20T13:38:11.000Z,24
2022-09-20T13:39:27.000Z,24
2022-09-20T13:40:44.000Z,24
2022-09-20T13:42:00.000Z,24
2022-09-20T13:43:15.000Z,24
2022-09-20T13:44:31.809Z,24
2022-09-20T13:45:47.000Z,23.9
2022-09-20T13:47:03.000Z,23.9
2022-09-20T13:48:20.000Z,23.9
2022-09-20T13:49:36.000Z,23.9
2022-09-20T13:50:52.000Z,23.9
2022-09-20T13:52:08.000Z,23.9
2022-09-20T13:53:24.840Z,23.9
2022-09-20T13:54:40.000Z,23.8
2022-09-20T13:55:57.135Z,23.8
2022-09-20T13:57:13.000Z,23.8
2022-09-20T13:58:29.425Z,23.8
2022-09-20T13:59:44.000Z,23.7
2022-09-20T14:01:00.000Z,23.7
2022-09-20T14:02:16.000Z,23.7
2022-09-20T14:03:33.024Z,23.7
2022-09-20T14:04:48.000Z,23.7
2022-09-20T14:06:05.000Z,23.7
2022-09-20T14:07:21.467Z,23.8
2022-09-20T14:08:37.000Z,23.8
2022-09-20T14:09:53.000Z,23.9
2022-09-20T14:11:09.000Z,23.9
2022-09-20T14:12:25.000Z,24
2022-09-20T14:13:42.197Z,24
2022-09-20T14:14:58.000Z,24.1
2022-09-20T14:16:13.000Z,24.1
2022-09-20T14:17:29.000Z,24.1
2022-09-20T14:18:45.828Z,24.1
2022-09-20T14:20:01.000Z,24
2022-09-20T14:21:17.000Z,23.9
2022-09-20T14:22:34.000Z,23.8
2022-09-20T14:23:50.386Z,23.7
2022-09-20T14:25:06.000Z,23.5
2022-09-20T14:26:22.000Z,23.2
2022-09-20T14:27:38.000Z,22.9
2022-09-20T14:28:54.000Z,22.7
2022-09-20T14:30:10.000Z,22.4
2022-09-20T14:31:27.271Z,22.2
2022-09-20T14:32:42.000Z,22
2022-09-20T14:33:58.576Z,21.8
2022-09-20T14:35:14.000Z,21.5
2022-09-20T14:36:30.874Z,21.3
2022-09-20T14:37:46.000Z,21.1
2022-09-20T14:39:02.000Z,20.9
2022-09-20T14:40:19.000Z,20.8
2022-09-20T14:41:35.000Z,20.6
2022-09-20T14:42:51.000Z,20.4
2022-09-20T14:44:07.000Z,20.2
2022-09-20T14:45:23.000Z,20
2022-09-20T14:46:39.000Z,19.9
2022-09-20T14:47:56.197Z,19.8
2022-09-20T14:49:11.360Z,19.6
2022-09-20T14:50:27.000Z,19.5
2022-09-20T14:51:43.647Z,19.3
2022-09-20T14:52:59.000Z,19.2
2022-09-20T14:54:15.000Z,19
2022-09-20T14:55:31.000Z,18.9
2022-09-20T14:56:48.233Z,18.7
2022-09-20T14:58:04.000Z,18.6
2022-09-20T14:59:20.000Z,18.5
2022-09-20T15:00:36.000Z,18.3
2022-09-20T15:01:52.816Z,18.2
2022-09-20T15:03:08.000Z,18.1
2022-09-20T15:04:24.000Z,18
2022-09-20T15:05:40.000Z,17.9
2022-09-20T15:06:56.000Z,17.8
2022-09-20T15:08:12.000Z,17.8
2022-09-20T15:09:28.000Z,17.8
2022-09-20T15:10:44.000Z,17.8
2022-09-20T15:12:00.000Z,17.8
2022-09-20T15:13:16.000Z,17.8
2022-09-20T15:14:33.000Z,17.8
2022-09-20T15:15:49.000Z,17.9
2022-09-20T15:17:05.000Z,17.9
2022-09-20T15:18:21.000Z,18
2022-09-20T15:19:37.000Z,18.1
2022-09-20T15:20:53.000Z,18.2
2022-09-20T15:22:09.207Z,18.2
2022-09-20T15:23:25.000Z,18.3
2022-09-20T15:24:41.000Z,18.4
2022-09-20T15:25:57.000Z,18.5
2022-09-20T15:27:13.000Z,18.6
2022-09-20T15:28:29.000Z,18.7
2022-09-20T15:29:44.000Z,18.8
2022-09-20T15:31:01.000Z,18.9
2022-09-20T15:32:17.000Z,18.9
2022-09-20T15:33:33.000Z,19
2022-09-20T15:34:49.000Z,19
2022-09-20T15:36:05.000Z,19.1
2022-09-20T15:37:21.000Z,19.1
2022-09-20T15:38:37.000Z,19.1
2022-09-20T15:39:54.280Z,19.1
2022-09-20T15:41:10.000Z,19.1
2022-09-20T15:42:26.566Z,19.2
2022-09-20T15:43:42.000Z,19.2
2022-09-20T15:44:58.000Z,19.2
2022-09-20T15:46:13.000Z,19.2
2022-09-20T15:47:29.000Z,19.2
2022-09-20T15:48:46.000Z,19.2
2022-09-20T15:50:02.000Z,19.2
2022-09-20T15:51:18.000Z,19.2
2022-09-20T15:52:34.000Z,19.1
2022-09-20T15:53:50.000Z,19
2022-09-20T15:55:06.000Z,18.9
2022-09-20T15:56:22.000Z,18.8
2022-09-20T15:57:39.000Z,18.7
2022-09-20T15:58:55.487Z,18.5
2022-09-20T16:00:11.000Z,18.3
2022-09-20T16:01:27.000Z,18.1
2022-09-20T16:02:42.000Z,17.9
2022-09-20T16:03:58.000Z,17.7
2022-09-20T16:05:15.000Z,17.5
2022-09-20T16:06:31.000Z,17.4
2022-09-20T16:07:47.000Z,17.2
2022-09-20T16:09:03.000Z,17.1
2022-09-20T16:10:19.815Z,17
2022-09-20T16:11:35.000Z,16.9
2022-09-20T16:12:51.000Z,16.8
2022-09-20T16:14:08.000Z,16.7
2022-09-20T16:15:24.000Z,16.7
2022-09-20T16:16:40.000Z,16.6
2022-09-20T16:17:56.000Z,16.5
2022-09-20T16:19:11.000Z,16.5
2022-09-20T16:20:27.000Z,16.4
2022-09-20T16:21:43.000Z,16.4
2022-09-20T16:23:00.000Z,16.4
2022-09-20T16:24:16.450Z,16.4
2022-09-20T16:25:32.000Z,16.4
2022-09-20T16:26:48.745Z,16.4
2022-09-20T16:28:04.892Z,16.4
2022-09-20T16:29:20.000Z,16.4
2022-09-20T16:30:37.187Z,16.5
2022-09-20T16:31:53.333Z,16.5
2022-09-20T16:33:09.000Z,16.5
2022-09-20T16:34:25.000Z,16.5
2022-09-20T16:35:40.000Z,16.6
2022-09-20T16:36:56.000Z,16.6
2022-09-20T16:38:13.079Z,16.6
2022-09-20T16:39:28.000Z,16.6
2022-09-20T16:40:45.000Z,16.7
2022-09-20T16:42:01.000Z,16.7
2022-09-20T16:43:17.000Z,16.7
2022-09-20T16:44:33.000Z,16.6
2022-09-20T16:45:49.000Z,16.6
2022-09-20T16:47:05.000Z,16.6
2022-09-20T16:48:22.254Z,16.5
2022-09-20T16:49:38.000Z,16.5
2022-09-20T16:50:54.000Z,16.4
2022-09-20T16:52:09.000Z,16.3
2022-09-20T16:53:25.000Z,16.2
2022-09-20T16:54:41.000Z,16.1
2022-09-20T16:55:57.000Z,16
2022-09-20T16:57:14.302Z,15.9
2022-09-20T16:58:30.440Z,15.8
2022-09-20T16:59:46.000Z,15.8
2022-09-20T17:01:02.000Z,15.7
2022-09-20T17:02:18.000Z,15.6
2022-09-20T17:03:34.000Z,15.5
2022-09-20T17:04:50.000Z,15.4
2022-09-20T17:06:07.000Z,15.3
2022-09-20T17:07:23.000Z,15.2
2022-09-20T17:08:38.630Z,15.1
2022-09-20T17:09:54.000Z,15
2022-09-20T17:11:10.924Z,14.9
2022-09-20T17:12:27.068Z,14.8
2022-09-20T17:13:42.000Z,14.7